createdAt,value
2023-03-13T00:01:32.590Z,9.35
2023-03-13T00:03:59.772Z,9.43
2023-03-13T00:06:27.383Z,6.60
2023-03-13T00:08:56.253Z,8.25
2023-03-13T00:11:23.490Z,6.63
2023-03-13T00:13:54.227Z,8.60
2023-03-13T00:16:21.486Z,9.07
2023-03-13T00:18:49.475Z,7.97
2023-03-13T00:21:17.082Z,9.65
2023-03-13T00:23:44.260Z,7.30
2023-03-13T00:26:13.081Z,7.88
2023-03-13T00:28:40.431Z,5.43
2023-03-13T00:31:08.119Z,4.90
2023-03-13T00:33:35.376Z,7.90
2023-03-13T00:36:02.739Z,7.18
2023-03-13T00:38:30.123Z,7.20
2023-03-13T00:41:00.964Z,6.20
2023-03-13T00:43:29.500Z,6.63
2023-03-13T00:45:56.717Z,7.05
2023-03-13T00:48:24.006Z,6.60
2023-03-13T00:50:51.217Z,5.63
2023-03-13T00:53:18.401Z,6.75
2023-03-13T00:55:52.295Z,8.85
2023-03-13T00:58:19.460Z,5.78
2023-03-13T01:00:47.986Z,5.18
2023-03-13T01:03:15.384Z,8.77
2023-03-13T01:05:42.651Z,9.30
2023-03-13T01:08:09.829Z,6.82
2023-03-13T01:10:37.037Z,5.68
2023-03-13T01:13:04.708Z,5.35
2023-03-13T01:15:32.046Z,9.43
2023-03-13T01:18:00.561Z,7.07
2023-03-13T01:20:27.740Z,6.35
2023-03-13T01:22:54.932Z,10.98
2023-03-13T01:25:22.108Z,7.55
2023-03-13T01:27:49.290Z,6.57
2023-03-13T01:30:16.714Z,5.15
2023-03-13T01:32:43.913Z,6.82
2023-03-13T01:35:12.862Z,8.63
2023-03-13T01:37:40.146Z,6.00
2023-03-13T01:40:07.672Z,5.82
2023-03-13T01:42:49.482Z,6.55
2023-03-13T01:45:31.586Z,6.60
2023-03-13T01:47:58.799Z,8.70
2023-03-13T01:50:27.315Z,9.95
2023-03-13T01:52:54.583Z,6.75
2023-03-13T01:55:21.786Z,6.50
2023-03-13T01:57:50.410Z,6.95
2023-03-13T02:00:18.681Z,5.72
2023-03-13T02:02:47.100Z,5.95
2023-03-13T02:05:14.343Z,9.25
2023-03-13T02:07:44.250Z,7.63
2023-03-13T02:10:11.932Z,6.15
2023-03-13T02:12:39.600Z,5.43
2023-03-13T02:15:07.619Z,7.00
2023-03-13T02:17:35.048Z,6.85
2023-03-13T02:20:02.285Z,10.10
2023-03-13T02:22:30.435Z,5.88
2023-03-13T02:24:59.491Z,6.82
2023-03-13T02:27:28.027Z,8.50
2023-03-13T02:29:55.229Z,6.05
2023-03-13T02:32:22.568Z,7.82
2023-03-13T02:34:50.553Z,9.40
2023-03-13T02:37:17.795Z,6.80
2023-03-13T02:39:46.642Z,6.63
2023-03-13T02:42:13.931Z,6.03
2023-03-13T02:44:42.637Z,5.97
2023-03-13T02:47:10.574Z,6.43
2023-03-13T02:49:37.873Z,6.10
2023-03-13T02:52:07.108Z,5.55
2023-03-13T02:54:35.164Z,6.17
2023-03-13T02:57:03.107Z,7.93
2023-03-13T02:59:30.362Z,6.68
2023-03-13T03:01:59.063Z,5.03
2023-03-13T03:04:26.574Z,6.28
2023-03-13T03:06:53.979Z,6.13
2023-03-13T03:09:21.253Z,5.95
2023-03-13T03:11:48.538Z,8.85
2023-03-13T03:14:15.757Z,6.18
2023-03-13T03:16:43.056Z,5.90
2023-03-13T03:19:11.843Z,6.05
2023-03-13T03:21:39.149Z,4.72
2023-03-13T03:24:06.544Z,4.97
2023-03-13T03:26:33.840Z,5.15
2023-03-13T03:29:01.146Z,6.25
2023-03-13T03:31:28.437Z,5.88
2023-03-13T03:33:55.660Z,5.03
2023-03-13T03:36:24.215Z,3.42
2023-03-13T03:38:51.475Z,6.40
2023-03-13T03:41:19.092Z,7.28
2023-03-13T03:43:47.268Z,5.50
2023-03-13T03:46:14.491Z,5.72
2023-03-13T03:48:41.894Z,5.32
2023-03-13T03:51:09.084Z,5.30
2023-03-13T03:53:37.628Z,7.45
2023-03-13T03:56:05.125Z,5.03
2023-03-13T03:58:32.301Z,6.22
2023-03-13T04:00:59.541Z,6.95
2023-03-13T04:03:26.915Z,4.65
2023-03-13T04:05:54.136Z,4.82
2023-03-13T04:08:21.324Z,7.88
2023-03-13T04:10:49.876Z,5.55
2023-03-13T04:13:17.059Z,6.65
2023-03-13T04:15:44.323Z,6.35
2023-03-13T04:18:11.614Z,5.22
2023-03-13T04:20:38.807Z,6.57
2023-03-13T04:23:06.010Z,4.80
2023-03-13T04:25:33.204Z,6.00
2023-03-13T04:28:01.727Z,6.20
2023-03-13T04:30:28.918Z,4.55
2023-03-13T04:32:56.172Z,7.00
2023-03-13T04:35:23.468Z,5.75
2023-03-13T04:37:50.740Z,6.13
2023-03-13T04:40:17.996Z,6.63
2023-03-13T04:42:46.860Z,3.78
2023-03-13T04:45:15.384Z,5.25
2023-03-13T04:47:42.615Z,4.43
2023-03-13T04:50:10.281Z,3.90
2023-03-13T04:52:37.458Z,7.70
2023-03-13T04:55:04.888Z,4.82
2023-03-13T04:57:32.073Z,4.57
2023-03-13T04:59:59.253Z,6.40
2023-03-13T05:02:28.069Z,4.85
2023-03-13T05:04:55.305Z,5.65
2023-03-13T05:07:22.503Z,5.30
2023-03-13T05:09:49.681Z,4.55
2023-03-13T05:12:16.909Z,6.45
2023-03-13T05:14:44.106Z,4.25
2023-03-13T05:17:12.504Z,4.57
2023-03-13T05:19:41.085Z,3.85
2023-03-13T05:22:08.313Z,4.97
2023-03-13T05:24:35.517Z,5.80
2023-03-13T05:27:02.858Z,4.35
2023-03-13T05:29:30.034Z,7.38
2023-03-13T05:31:57.200Z,3.97
2023-03-13T05:34:24.384Z,6.68
2023-03-13T05:36:52.861Z,4.60
2023-03-13T05:39:20.267Z,6.45
2023-03-13T05:41:47.501Z,3.17
2023-03-13T05:44:14.698Z,5.75
2023-03-13T05:46:41.974Z,4.70
2023-03-13T05:49:09.255Z,3.80
2023-03-13T05:51:36.447Z,4.30
2023-03-13T05:54:05.137Z,5.22
2023-03-13T05:56:32.304Z,4.15
2023-03-13T05:58:59.506Z,4.25
2023-03-13T06:01:26.799Z,3.88
2023-03-13T06:03:54.138Z,5.15
2023-03-13T06:06:21.369Z,4.63
2023-03-13T06:08:48.580Z,2.22
2023-03-13T06:11:17.083Z,4.65
2023-03-13T06:13:44.290Z,4.18
2023-03-13T06:16:11.788Z,4.90
2023-03-13T06:18:38.997Z,5.43
2023-03-13T06:21:06.499Z,4.20
2023-03-13T06:23:33.717Z,5.43
2023-03-13T06:26:00.947Z,6.80
2023-03-13T06:28:29.467Z,2.80
2023-03-13T06:30:56.645Z,4.55
2023-03-13T06:33:23.897Z,3.42
2023-03-13T06:35:56.795Z,2.45
2023-03-13T06:38:24.341Z,3.22
2023-03-13T06:40:51.534Z,3.78
2023-03-13T06:43:18.746Z,3.30
2023-03-13T06:45:47.250Z,4.22
2023-03-13T06:48:14.497Z,3.17
2023-03-13T06:50:41.764Z,5.70
2023-03-13T06:53:08.988Z,5.60
2023-03-13T06:55:36.171Z,3.53
2023-03-13T06:58:03.351Z,3.47
2023-03-13T07:00:30.605Z,5.95
2023-03-13T07:02:59.185Z,4.57
2023-03-13T07:05:26.518Z,3.50
2023-03-13T07:07:53.766Z,3.25
2023-03-13T07:10:20.953Z,2.00
2023-03-13T07:12:48.194Z,6.28
2023-03-13T07:15:15.368Z,4.78
2023-03-13T07:17:42.575Z,3.03
2023-03-13T07:20:12.291Z,3.67
2023-03-13T07:22:39.509Z,5.10
2023-03-13T07:25:07.188Z,3.63
2023-03-13T07:27:34.422Z,4.95
2023-03-13T07:30:01.637Z,5.78
2023-03-13T07:32:32.010Z,6.35
2023-03-13T07:34:59.260Z,3.25
2023-03-13T07:37:27.788Z,2.90
2023-03-13T07:39:54.966Z,3.00
2023-03-13T07:42:22.151Z,3.42
2023-03-13T07:44:49.338Z,4.20
2023-03-13T07:47:16.515Z,3.58
2023-03-13T07:49:46.089Z,3.92
2023-03-13T07:52:13.280Z,2.35
2023-03-13T07:54:41.808Z,3.53
2023-03-13T07:57:09.218Z,4.90
2023-03-13T07:59:36.434Z,5.20
2023-03-13T08:02:03.640Z,4.55
2023-03-13T08:04:30.853Z,4.38
2023-03-13T08:06:58.026Z,3.25
2023-03-13T08:09:25.291Z,4.95
2023-03-13T08:11:53.816Z,3.33
2023-03-13T08:14:21.004Z,3.78
2023-03-13T08:16:48.328Z,3.33
2023-03-13T08:19:15.570Z,2.13
2023-03-13T08:21:42.738Z,3.05
2023-03-13T08:24:10.606Z,3.15
2023-03-13T08:26:38.329Z,3.00
2023-03-13T08:29:07.317Z,6.15
2023-03-13T08:31:34.911Z,4.00
2023-03-13T08:34:02.131Z,4.13
2023-03-13T08:36:29.703Z,6.47
2023-03-13T08:38:58.785Z,3.63
2023-03-13T08:41:26.650Z,6.65
2023-03-13T08:43:53.924Z,3.10
2023-03-13T08:46:22.479Z,4.25
2023-03-13T08:48:50.118Z,3.38
2023-03-13T08:51:18.985Z,2.95
2023-03-13T08:53:46.175Z,2.67
2023-03-13T08:56:13.924Z,4.00
2023-03-13T08:58:41.141Z,4.78
2023-03-13T09:01:08.739Z,3.45
2023-03-13T09:03:37.257Z,2.55
2023-03-13T09:06:04.705Z,3.67
2023-03-13T09:08:31.963Z,4.90
2023-03-13T09:10:59.244Z,3.60
2023-03-13T09:13:26.534Z,3.28
2023-03-13T09:15:56.917Z,2.80
2023-03-13T09:18:24.227Z,3.33
2023-03-13T09:20:52.762Z,3.13
2023-03-13T09:23:20.132Z,6.25
2023-03-13T09:25:47.326Z,2.33
2023-03-13T09:28:14.503Z,3.20
2023-03-13T09:30:41.846Z,3.22
2023-03-13T09:33:09.063Z,8.82
2023-03-13T09:35:36.235Z,3.28
2023-03-13T09:38:04.737Z,3.35
2023-03-13T09:40:31.922Z,4.93
2023-03-13T09:42:59.655Z,3.22
2023-03-13T09:45:31.177Z,3.65
2023-03-13T09:47:58.978Z,5.97
2023-03-13T09:50:26.533Z,3.55
2023-03-13T09:52:54.329Z,3.88
2023-03-13T09:55:23.352Z,3.25
2023-03-13T09:57:50.928Z,3.28
2023-03-13T10:00:19.901Z,3.75
2023-03-13T10:02:47.536Z,7.57
2023-03-13T10:05:15.736Z,6.88
2023-03-13T10:07:42.926Z,5.20
2023-03-13T10:10:14.280Z,4.22
2023-03-13T10:12:44.888Z,3.88
2023-03-13T10:15:21.994Z,5.63
2023-03-13T10:17:49.255Z,4.45
2023-03-13T10:20:19.005Z,6.05
2023-03-13T10:22:48.820Z,3.22
2023-03-13T10:25:20.599Z,5.20
2023-03-13T10:27:51.082Z,6.03
2023-03-13T10:30:20.540Z,5.55
2023-03-13T10:32:47.774Z,5.77
2023-03-13T10:35:21.284Z,5.32
2023-03-13T10:37:48.550Z,3.92
2023-03-13T10:40:21.107Z,3.90
2023-03-13T10:42:48.278Z,3.42
2023-03-13T10:45:17.957Z,4.03
2023-03-13T10:47:45.181Z,3.88
2023-03-13T10:50:17.691Z,3.47
2023-03-13T10:52:45.348Z,5.40
2023-03-13T10:55:13.034Z,5.10
2023-03-13T10:57:40.242Z,4.85
2023-03-13T11:00:24.215Z,5.30
2023-03-13T11:02:51.594Z,3.70
2023-03-13T11:05:32.387Z,4.40
2023-03-13T11:07:59.606Z,4.82
2023-03-13T11:10:27.101Z,2.70
2023-03-13T11:12:54.768Z,6.60
2023-03-13T11:15:24.386Z,5.90
2023-03-13T11:17:52.284Z,3.70
2023-03-13T11:20:22.549Z,3.88
2023-03-13T11:22:51.802Z,5.45
2023-03-13T11:25:23.170Z,3.20
2023-03-13T11:27:59.452Z,5.50
2023-03-13T11:30:34.131Z,4.20
2023-03-13T11:33:01.594Z,3.63
2023-03-13T11:35:34.288Z,6.70
2023-03-13T11:38:01.472Z,4.82
2023-03-13T11:40:29.408Z,3.15
2023-03-13T11:43:24.148Z,3.15
2023-03-13T11:46:00.505Z,4.82
2023-03-13T11:48:34.640Z,4.32
2023-03-13T11:51:02.368Z,4.25
2023-03-13T11:53:32.371Z,6.32
2023-03-13T11:56:02.666Z,5.75
2023-03-13T12:00:58.951Z,3.08
2023-03-13T12:03:31.558Z,4.20
2023-03-13T12:05:59.751Z,3.38
2023-03-13T12:08:27.769Z,5.05
2023-03-13T12:10:57.405Z,1.92
2023-03-13T12:13:24.859Z,3.35
2023-03-13T12:15:52.783Z,2.22
2023-03-13T12:18:20.759Z,3.22
2023-03-13T12:20:53.300Z,2.83
2023-03-13T12:23:20.756Z,3.35
2023-03-13T12:25:49.315Z,2.50
2023-03-13T12:28:24.169Z,2.83
2023-03-13T12:35:16.481Z,2.47
2023-03-13T12:37:46.705Z,1.85
2023-03-13T12:42:44.135Z,1.95
2023-03-13T12:45:11.678Z,2.85
2023-03-13T12:47:51.952Z,2.90
2023-03-13T12:50:22.712Z,2.95
2023-03-13T12:52:57.172Z,2.78
2023-03-13T12:55:48.645Z,3.53
2023-03-13T12:58:26.848Z,3.13
2023-03-13T13:00:54.070Z,2.47
2023-03-13T13:03:23.133Z,3.00
2023-03-13T13:05:59.854Z,1.52
2023-03-13T13:08:28.402Z,2.15
2023-03-13T13:10:55.581Z,5.03
2023-03-13T13:13:40.881Z,4.03
2023-03-13T13:16:08.633Z,3.03
2023-03-13T13:18:35.839Z,3.90
2023-03-13T13:21:22.298Z,3.08
2023-03-13T13:23:53.887Z,2.63
2023-03-13T13:26:48.685Z,2.25
2023-03-13T13:29:34.720Z,3.50
2023-03-13T13:32:02.927Z,2.00
2023-03-13T13:34:49.100Z,2.33
2023-03-13T13:37:25.845Z,3.72
2023-03-13T13:39:54.449Z,2.42
2023-03-13T13:42:45.605Z,2.67
2023-03-13T13:45:22.657Z,3.35
2023-03-13T13:47:50.268Z,7.82
2023-03-13T13:50:18.001Z,1.83
2023-03-13T13:52:45.180Z,1.92
2023-03-13T13:55:30.906Z,1.85
2023-03-13T13:58:03.182Z,1.85
2023-03-13T14:00:30.641Z,2.10
2023-03-13T14:02:57.878Z,2.97
2023-03-13T14:05:26.672Z,1.83
2023-03-13T14:07:58.195Z,5.32
2023-03-13T14:10:33.682Z,2.83
2023-03-13T14:13:02.276Z,1.80
2023-03-13T14:15:29.689Z,2.45
2023-03-13T14:18:00.182Z,1.83
2023-03-13T14:20:31.210Z,1.70
2023-03-13T14:23:01.403Z,2.40
2023-03-13T14:25:28.990Z,1.65
2023-03-13T14:27:56.255Z,2.47
2023-03-13T14:30:27.014Z,1.58
2023-03-13T14:32:54.663Z,1.38
2023-03-13T14:35:23.345Z,1.83
2023-03-13T14:37:51.026Z,1.38
2023-03-13T14:40:25.276Z,1.42
2023-03-13T14:42:52.979Z,3.00
2023-03-13T14:45:22.499Z,3.28
2023-03-13T14:47:51.896Z,1.95
2023-03-13T14:50:19.177Z,2.08
2023-03-13T14:52:46.527Z,1.30
2023-03-13T14:55:26.828Z,1.90
2023-03-13T14:57:57.373Z,1.25
2023-03-13T15:00:32.413Z,2.60
2023-03-13T15:03:32.847Z,3.33
2023-03-13T15:06:05.171Z,2.33
2023-03-13T15:08:32.337Z,4.70
2023-03-13T15:10:59.517Z,1.67
2023-03-13T15:13:27.103Z,2.90
2023-03-13T15:15:54.291Z,1.20
2023-03-13T15:18:22.458Z,1.95
2023-03-13T15:20:50.261Z,1.30
2023-03-13T15:23:18.751Z,1.48
2023-03-13T15:25:45.948Z,2.25
2023-03-13T15:28:14.630Z,3.33
2023-03-13T15:30:41.846Z,3.22
2023-03-13T15:33:11.320Z,2.05
2023-03-13T15:35:38.641Z,1.10
2023-03-13T15:38:07.349Z,1.27
2023-03-13T15:40:35.852Z,1.30
2023-03-13T15:43:03.051Z,1.20
2023-03-13T15:45:30.260Z,1.38
2023-03-13T15:47:57.434Z,1.55
2023-03-13T15:50:29.605Z,0.93
2023-03-13T15:52:56.822Z,1.35
2023-03-13T15:55:24.047Z,1.63
2023-03-13T15:57:52.581Z,1.85
2023-03-13T16:00:20.450Z,2.03
2023-03-13T16:02:47.681Z,1.00
2023-03-13T16:05:15.000Z,1.40
2023-03-13T16:07:42.187Z,1.58
2023-03-13T16:10:13.626Z,1.15
2023-03-13T16:12:40.836Z,3.30
2023-03-13T16:15:10.777Z,1.00
2023-03-13T16:17:37.959Z,2.05
2023-03-13T16:20:06.504Z,1.63
2023-03-13T16:22:33.695Z,1.30
2023-03-13T16:25:00.864Z,1.35
2023-03-13T16:27:29.014Z,1.40
2023-03-13T16:29:56.197Z,1.35
2023-03-13T16:32:25.467Z,1.40
2023-03-13T16:34:52.677Z,1.55
2023-03-13T16:37:20.280Z,1.80
2023-03-13T16:39:48.047Z,2.20
2023-03-13T16:42:15.275Z,2.25
2023-03-13T16:44:42.451Z,1.13
2023-03-13T16:47:14.518Z,1.20
2023-03-13T16:49:43.424Z,2.15
2023-03-13T16:52:11.728Z,1.15
2023-03-13T16:54:38.907Z,1.15
2023-03-13T16:57:06.890Z,1.70
2023-03-13T16:59:34.074Z,1.73
2023-03-13T17:02:01.260Z,1.30
2023-03-13T17:04:28.512Z,1.15
2023-03-13T17:06:57.048Z,1.38
2023-03-13T17:09:24.393Z,1.17
2023-03-13T17:11:51.844Z,1.20
2023-03-13T17:14:19.029Z,1.23
2023-03-13T17:16:46.271Z,1.42
2023-03-13T17:19:13.677Z,1.30
2023-03-13T17:21:40.894Z,1.00
2023-03-13T17:24:09.616Z,1.40
2023-03-13T17:26:37.250Z,1.48
2023-03-13T17:29:04.996Z,1.20
2023-03-13T17:31:37.110Z,1.10
2023-03-13T17:34:04.514Z,1.30
2023-03-13T17:36:31.799Z,0.93
2023-03-13T17:38:59.513Z,1.00
2023-03-13T17:41:28.465Z,1.48
2023-03-13T17:43:55.645Z,1.25
2023-03-13T17:46:23.540Z,1.08
2023-03-13T17:48:51.079Z,0.95
2023-03-13T17:51:19.765Z,0.98
2023-03-13T17:53:47.035Z,1.17
2023-03-13T17:56:14.933Z,1.00
2023-03-13T17:58:43.469Z,1.30
2023-03-13T18:01:11.691Z,1.02
2023-03-13T18:03:38.914Z,1.20
2023-03-13T18:06:06.372Z,1.17
2023-03-13T18:08:33.778Z,1.58
2023-03-13T18:11:01.367Z,1.20
2023-03-13T18:13:28.558Z,1.70
2023-03-13T18:15:57.068Z,1.00
2023-03-13T18:18:24.295Z,1.45
2023-03-13T18:20:51.621Z,1.33
2023-03-13T18:23:18.835Z,1.20
2023-03-13T18:25:46.464Z,1.17
2023-03-13T18:28:14.091Z,1.30
2023-03-13T18:30:41.293Z,1.02
2023-03-13T18:33:09.804Z,1.20
2023-03-13T18:35:37.021Z,1.45
2023-03-13T18:38:04.309Z,0.90
2023-03-13T18:40:31.485Z,1.33
2023-03-13T18:42:58.683Z,1.00
2023-03-13T18:45:26.075Z,1.00
2023-03-13T18:47:53.362Z,2.03
2023-03-13T18:50:25.018Z,1.25
2023-03-13T18:52:52.731Z,1.20
2023-03-13T18:55:19.936Z,1.02
2023-03-13T18:57:47.762Z,1.33
2023-03-13T19:00:16.053Z,1.42
2023-03-13T19:02:43.505Z,1.10
2023-03-13T19:05:10.868Z,1.60
2023-03-13T19:07:39.378Z,1.00
2023-03-13T19:10:07.414Z,1.20
2023-03-13T19:12:34.659Z,1.67
2023-03-13T19:15:01.863Z,1.20
2023-03-13T19:17:29.435Z,1.00
2023-03-13T19:19:57.324Z,1.10
2023-03-13T19:22:24.795Z,1.20
2023-03-13T19:24:53.292Z,0.95
2023-03-13T19:27:20.474Z,1.02
2023-03-13T19:29:47.820Z,1.30
2023-03-13T19:32:15.169Z,1.10
2023-03-13T19:34:42.363Z,1.08
2023-03-13T19:37:10.477Z,1.38
2023-03-13T19:39:37.670Z,1.05
2023-03-13T19:42:07.667Z,1.08
2023-03-13T19:44:34.915Z,1.10
2023-03-13T19:47:02.142Z,1.30
2023-03-13T19:49:29.342Z,1.67
2023-03-13T19:51:56.558Z,1.38
2023-03-13T19:54:24.209Z,1.25
2023-03-13T19:56:53.338Z,0.95
2023-03-13T19:59:22.050Z,1.15
2023-03-13T20:01:49.293Z,1.10
2023-03-13T20:04:16.592Z,0.98
2023-03-13T20:06:43.859Z,1.00
2023-03-13T20:09:11.975Z,1.33
2023-03-13T20:11:39.244Z,0.93
2023-03-13T20:14:06.520Z,0.95
2023-03-13T20:16:35.439Z,1.17
2023-03-13T20:19:02.730Z,0.90
2023-03-13T20:21:30.247Z,1.20
2023-03-13T20:23:57.531Z,1.00
2023-03-13T20:26:24.905Z,1.15
2023-03-13T20:28:52.572Z,1.20
2023-03-13T20:31:21.013Z,1.20
2023-03-13T20:33:49.562Z,1.05
2023-03-13T20:36:17.142Z,1.55
2023-03-13T20:38:44.387Z,1.08
2023-03-13T20:41:11.700Z,1.20
2023-03-13T20:43:38.924Z,1.20
2023-03-13T20:46:06.919Z,1.30
2023-03-13T20:48:35.545Z,1.33
2023-03-13T20:51:04.264Z,1.20
2023-03-13T20:53:31.484Z,1.00
2023-03-13T20:55:58.699Z,1.20
2023-03-13T20:58:25.893Z,1.20
2023-03-13T21:00:53.120Z,1.20
2023-03-13T21:03:20.306Z,1.00
2023-03-13T21:05:47.472Z,1.05
2023-03-13T21:08:15.971Z,0.90
2023-03-13T21:10:43.132Z,1.17
2023-03-13T21:13:10.473Z,1.23
2023-03-13T21:15:37.810Z,1.30
2023-03-13T21:18:05.186Z,1.20
2023-03-13T21:20:32.365Z,1.30
2023-03-13T21:22:59.554Z,1.27
2023-03-13T21:25:28.091Z,0.98
2023-03-13T21:27:55.286Z,1.08
2023-03-13T21:30:22.519Z,1.10
2023-03-13T21:32:49.787Z,1.13
2023-03-13T21:35:17.378Z,1.15
2023-03-13T21:37:44.694Z,0.95
2023-03-13T21:40:12.380Z,1.30
2023-03-13T21:42:40.882Z,2.45
2023-03-13T21:45:08.662Z,1.20
2023-03-13T21:47:37.083Z,1.20
2023-03-13T21:50:04.824Z,0.88
2023-03-13T21:52:38.120Z,1.42
2023-03-13T21:55:08.106Z,1.75
2023-03-13T21:57:35.330Z,1.10
2023-03-13T22:00:07.839Z,1.58
2023-03-13T22:02:35.094Z,1.20
2023-03-13T22:05:02.334Z,1.33
2023-03-13T22:07:30.792Z,0.90
2023-03-13T22:09:57.990Z,1.20
2023-03-13T22:12:25.466Z,1.63
2023-03-13T22:14:52.693Z,1.63
2023-03-13T22:17:21.992Z,1.98
2023-03-13T22:19:50.028Z,1.83
2023-03-13T22:22:19.685Z,1.20
2023-03-13T22:24:47.223Z,1.75
2023-03-13T22:27:15.325Z,1.13
2023-03-13T22:29:42.502Z,1.55
2023-03-13T22:32:10.251Z,1.20
2023-03-13T22:34:44.620Z,1.63
2023-03-13T22:37:11.980Z,1.73
2023-03-13T22:39:39.269Z,1.27
2023-03-13T22:42:06.610Z,1.10
2023-03-13T22:44:33.844Z,1.17
2023-03-13T22:47:01.064Z,1.75
2023-03-13T22:49:28.380Z,1.80
2023-03-13T22:51:58.834Z,1.25
2023-03-13T22:54:26.059Z,1.20
2023-03-13T22:56:53.257Z,1.23
2023-03-13T22:59:20.450Z,1.88
2023-03-13T23:01:47.661Z,1.48
2023-03-13T23:04:15.035Z,2.55
2023-03-13T23:06:42.236Z,1.73
2023-03-13T23:09:10.724Z,1.20
2023-03-13T23:11:38.339Z,1.45
2023-03-13T23:14:05.526Z,1.10
2023-03-13T23:16:32.911Z,2.10
2023-03-13T23:19:00.108Z,1.33
2023-03-13T23:21:27.288Z,1.08
2023-03-13T23:23:54.474Z,1.30
2023-03-13T23:26:23.156Z,1.65
2023-03-13T23:28:50.345Z,1.20
2023-03-13T23:31:17.968Z,1.38
2023-03-13T23:33:45.181Z,1.20
2023-03-13T23:36:13.228Z,1.00
2023-03-13T23:38:40.519Z,1.85
2023-03-13T23:41:07.907Z,1.30
2023-03-13T23:43:36.466Z,1.73
2023-03-13T23:46:03.725Z,1.10
2023-03-13T23:48:30.924Z,1.13
2023-03-13T23:50:58.154Z,1.85
2023-03-13T23:53:25.357Z,1.40
2023-03-13T23:55:59.057Z,1.88
2023-03-13T23:58:26.274Z,2.08
